GUH weather

Gunnedah Airport
New South Wales, Australia

Public forecast

Using degrees Celsius for public forecast. Weather courtesy of forecast.io.

Closest aviation weather report (METAR) to Gunnedah Airport

Closest report is Tamworth Airport, 31.5 nm (58.4 km) ESE. Retrieved 2020/04/05 23:00 UTC (4 minutes ago):

YSTW 052300Z AUTO 13001KT 9999 // NCD 15/12 Q1020 RF000/0000

Closest aviation forecast (TAF) to Gunnedah Airport

Closest forecast is Tamworth Airport, 31.5 nm (58.4 km) ESE. Retrieved 2020/04/05 18:36 UTC (4 hours ago):

TAF TAF YSTW 051641Z 0518/0612 VRB03KT CAVOK FM060000 20008KT CAVOK FM060900 15006KT CAVOK